Time;durP1;ratioP1;P1;durP2;ratioP2;P2;SDS_P1;SDS_P2;PMS_P1;PMS_P2;Temp;Humidity;BMP_temperature;BMP_pressure;BME280_temperature;BME280_humidity;BME280_pressure;Samples;Min_cycle;Max_cycle;Signal;HPM_P1;HPM_P2
2022/11/17 00:01:07;;;;;;;26.90;16.67;;;;;;;;;;5010496;28;20508;-81
2022/11/17 00:03:33;;;;;;;23.95;15.63;;;;;;;;;;5021087;28;20053;-81
2022/11/17 00:06:05;;;;;;;25.00;17.10;;;;;;;;;;5022603;28;20483;-81
2022/11/17 00:08:32;;;;;;;24.33;14.93;;;;;;;;;;5039797;28;20057;-81
2022/11/17 00:11:01;;;;;;;21.27;14.68;;;;;;;;;;5031476;28;20438;-81
2022/11/17 00:16:17;;;;;;;22.48;15.77;;;;;;;;;;5020845;28;20042;-81
2022/11/17 00:21:28;;;;;;;24.33;15.73;;;;;;;;;;5003113;28;20061;-81
2022/11/17 00:23:55;;;;;;;20.33;13.50;;;;;;;;;;5019157;28;20052;-81
2022/11/17 00:26:25;;;;;;;22.80;13.57;;;;;;;;;;5032490;28;20480;-81
2022/11/17 00:28:53;;;;;;;22.80;14.93;;;;;;;;;;5022903;28;20080;-81
2022/11/17 00:34:04;;;;;;;24.27;15.00;;;;;;;;;;5040531;28;20053;-81
2022/11/17 00:36:30;;;;;;;18.77;14.25;;;;;;;;;;5021132;28;20080;-81
2022/11/17 00:38:56;;;;;;;20.38;14.18;;;;;;;;;;5039675;28;20050;-81
2022/11/17 00:41:25;;;;;;;21.77;15.27;;;;;;;;;;5003794;28;20049;-81
2022/11/17 00:43:51;;;;;;;21.75;14.15;;;;;;;;;;5019071;28;20480;-81
2022/11/17 00:46:17;;;;;;;17.23;12.02;;;;;;;;;;5021797;28;20045;-81
2022/11/17 00:48:43;;;;;;;20.73;13.68;;;;;;;;;;5019293;28;20484;-81
2022/11/17 00:51:09;;;;;;;21.33;13.93;;;;;;;;;;5031802;28;20045;-81
2022/11/17 00:53:35;;;;;;;16.80;12.63;;;;;;;;;;5040579;28;20125;-81
2022/11/17 00:56:01;;;;;;;19.38;12.63;;;;;;;;;;5040165;28;20041;-81
2022/11/17 00:58:27;;;;;;;19.33;14.00;;;;;;;;;;5039200;28;20064;-81
2022/11/17 01:00:53;;;;;;;16.98;12.88;;;;;;;;;;5038147;28;20037;-80
2022/11/17 01:03:19;;;;;;;19.02;13.73;;;;;;;;;;5015975;28;20045;-81
2022/11/17 01:05:45;;;;;;;20.17;12.60;;;;;;;;;;5019395;28;20050;-81
2022/11/17 01:08:11;;;;;;;16.70;13.05;;;;;;;;;;5018224;28;20128;-80
2022/11/17 01:10:37;;;;;;;18.95;14.52;;;;;;;;;;5027284;28;20527;-80
2022/11/17 01:13:04;;;;;;;13.07;11.02;;;;;;;;;;5019513;28;20046;-81
2022/11/17 01:15:30;;;;;;;13.57;10.55;;;;;;;;;;5027923;28;20056;-81
2022/11/17 01:17:56;;;;;;;18.77;12.90;;;;;;;;;;5019660;28;20041;-80
2022/11/17 01:20:22;;;;;;;16.10;12.25;;;;;;;;;;5026975;28;20407;-80
2022/11/17 01:22:48;;;;;;;17.23;13.65;;;;;;;;;;5021850;28;20379;-81
2022/11/17 01:25:14;;;;;;;23.05;13.15;;;;;;;;;;5038884;28;20412;-81
2022/11/17 01:27:40;;;;;;;13.75;11.77;;;;;;;;;;5039399;28;20045;-81
2022/11/17 01:30:06;;;;;;;16.25;12.50;;;;;;;;;;5034523;28;20042;-81
2022/11/17 01:32:32;;;;;;;14.27;10.25;;;;;;;;;;5022240;28;20046;-81
2022/11/17 01:34:58;;;;;;;17.42;11.18;;;;;;;;;;5031243;28;20038;-81
2022/11/17 01:37:24;;;;;;;20.45;12.18;;;;;;;;;;5017024;28;20403;-81
2022/11/17 01:39:51;;;;;;;14.90;11.60;;;;;;;;;;5002037;28;20132;-81
2022/11/17 01:42:21;;;;;;;15.07;12.75;;;;;;;;;;5032379;28;20527;-81
2022/11/17 01:44:47;;;;;;;15.00;10.32;;;;;;;;;;5001555;28;20056;-81
2022/11/17 01:47:16;;;;;;;15.15;10.88;;;;;;;;;;5019944;28;20045;-81
2022/11/17 01:49:43;;;;;;;15.82;10.80;;;;;;;;;;5036211;28;20042;-81
2022/11/17 01:52:11;;;;;;;14.52;10.70;;;;;;;;;;5040051;28;20105;-81
2022/11/17 01:54:39;;;;;;;14.25;10.68;;;;;;;;;;5039349;28;20049;-81
2022/11/17 01:57:31;;;;;;;14.43;10.07;;;;;;;;;;5028027;28;20041;-80
2022/11/17 02:00:00;;;;;;;15.02;11.88;;;;;;;;;;5024054;28;20196;-81
2022/11/17 02:02:26;;;;;;;12.32;8.48;;;;;;;;;;5038844;28;20077;-81
2022/11/17 02:05:01;;;;;;;27.85;11.00;;;;;;;;;;5038307;28;20060;-81
2022/11/17 02:07:29;;;;;;;15.48;12.43;;;;;;;;;;5019370;28;20476;-81
2022/11/17 02:09:55;;;;;;;15.50;10.88;;;;;;;;;;5003002;28;20061;-80
2022/11/17 02:12:23;;;;;;;14.85;10.02;;;;;;;;;;5036056;28;20136;-81
2022/11/17 02:14:50;;;;;;;15.32;11.68;;;;;;;;;;5030222;28;20042;-81
2022/11/17 02:17:16;;;;;;;15.18;10.90;;;;;;;;;;5035421;28;20045;-81
2022/11/17 02:19:44;;;;;;;16.02;10.32;;;;;;;;;;5018529;28;20042;-80
2022/11/17 02:22:28;;;;;;;14.15;10.48;;;;;;;;;;5025233;28;20037;-81
2022/11/17 02:25:06;;;;;;;15.65;12.07;;;;;;;;;;5002871;28;20103;-81
2022/11/17 02:27:32;;;;;;;18.90;12.18;;;;;;;;;;5017707;28;20046;-81
2022/11/17 02:30:03;;;;;;;16.77;11.88;;;;;;;;;;5035404;28;20050;-80
2022/11/17 02:32:44;;;;;;;15.70;11.48;;;;;;;;;;5020348;28;20048;-81
2022/11/17 02:35:17;;;;;;;20.35;13.18;;;;;;;;;;5039590;28;20373;-80
2022/11/17 02:37:53;;;;;;;14.40;10.57;;;;;;;;;;5044187;28;20057;-79
2022/11/17 02:40:19;;;;;;;;;;;;;;;;;;5043135;28;20508;-79
2022/11/17 02:45:36;;;;;;;16.33;12.02;;;;;;;;;;5041829;28;20052;-80
2022/11/17 02:48:05;;;;;;;16.23;11.80;;;;;;;;;;5042610;28;20145;-80
2022/11/17 02:50:33;;;;;;;17.15;12.70;;;;;;;;;;5021656;28;20045;-80
2022/11/17 02:52:59;;;;;;;18.17;11.82;;;;;;;;;;5031881;28;20045;-80
2022/11/17 02:55:26;;;;;;;18.27;13.90;;;;;;;;;;5043780;28;20149;-80
2022/11/17 02:57:52;;;;;;;18.05;12.80;;;;;;;;;;5026269;28;20058;-80
2022/11/17 03:00:19;;;;;;;16.98;11.95;;;;;;;;;;5039627;28;20041;-80
2022/11/17 03:02:48;;;;;;;18.42;13.68;;;;;;;;;;5044936;28;20171;-80
2022/11/17 03:05:20;;;;;;;17.20;12.55;;;;;;;;;;5044857;28;20055;-79
2022/11/17 03:07:49;;;;;;;17.15;12.45;;;;;;;;;;5042685;28;20048;-79
2022/11/17 03:10:27;;;;;;;18.25;13.55;;;;;;;;;;5025428;28;20068;-79
2022/11/17 03:12:55;;;;;;;19.38;14.30;;;;;;;;;;5044917;28;20145;-79
2022/11/17 03:15:40;;;;;;;17.38;11.82;;;;;;;;;;5043869;28;20120;-79
2022/11/17 03:18:24;;;;;;;18.77;13.30;;;;;;;;;;5026104;28;20042;-80
2022/11/17 03:20:53;;;;;;;13.50;10.18;;;;;;;;;;5043769;28;20075;-79
2022/11/17 03:23:33;;;;;;;18.15;12.68;;;;;;;;;;5042335;28;20067;-79
2022/11/17 03:26:00;;;;;;;18.20;13.45;;;;;;;;;;5043602;28;20061;-80
2022/11/17 03:28:27;;;;;;;14.68;10.75;;;;;;;;;;5043244;28;20041;-80
2022/11/17 03:30:54;;;;;;;17.25;12.93;;;;;;;;;;5024477;28;20041;-80
2022/11/17 03:33:22;;;;;;;17.33;11.98;;;;;;;;;;5042710;28;20050;-79
2022/11/17 03:36:02;;;;;;;20.67;12.82;;;;;;;;;;5035873;28;20037;-80
2022/11/17 03:38:30;;;;;;;21.80;13.48;;;;;;;;;;5018716;28;20103;-80
2022/11/17 03:40:58;;;;;;;18.40;11.88;;;;;;;;;;5041720;28;20041;-80
2022/11/17 03:43:24;;;;;;;18.60;12.88;;;;;;;;;;5009040;28;20056;-79
2022/11/17 03:45:52;;;;;;;19.08;13.32;;;;;;;;;;5022147;28;20057;-79
2022/11/17 03:48:28;;;;;;;16.95;12.48;;;;;;;;;;5023567;28;20053;-80
2022/11/17 03:50:54;;;;;;;;;;;;;;;;;;5037023;28;20482;-79
2022/11/17 03:53:21;;;;;;;13.70;9.13;;;;;;;;;;5033818;28;20378;-79
2022/11/17 03:55:53;;;;;;;17.25;12.63;;;;;;;;;;5019479;28;20480;-79
2022/11/17 03:58:22;;;;;;;14.85;10.65;;;;;;;;;;5004035;28;20475;-80
2022/11/17 04:00:51;;;;;;;13.88;10.57;;;;;;;;;;5037635;28;20049;-79
2022/11/17 04:03:17;;;;;;;17.30;12.05;;;;;;;;;;5037658;28;20073;-79
2022/11/17 04:05:43;;;;;;;13.80;10.55;;;;;;;;;;5013416;28;20504;-79
2022/11/17 04:08:09;;;;;;;13.98;9.75;;;;;;;;;;5000763;28;20047;-79
2022/11/17 04:15:55;;;;;;;13.82;11.35;;;;;;;;;;5008348;28;20492;-80
2022/11/17 04:16:06;;;;;;;16.52;11.93;;;;;;;;;;5012070;28;20078;-79
2022/11/17 04:18:32;;;;;;;15.02;11.38;;;;;;;;;;5019619;28;20092;-79
2022/11/17 04:20:58;;;;;;;13.43;8.57;;;;;;;;;;5019611;28;20041;-79
2022/11/17 04:23:25;;;;;;;14.52;11.13;;;;;;;;;;5020492;28;20415;-79
2022/11/17 04:28:39;;;;;;;13.38;9.93;;;;;;;;;;5003679;28;20046;-79
2022/11/17 04:31:08;;;;;;;13.65;9.77;;;;;;;;;;5007481;28;20042;-79
2022/11/17 04:33:35;;;;;;;11.70;8.32;;;;;;;;;;5019982;28;20097;-79
2022/11/17 04:36:01;;;;;;;14.20;10.73;;;;;;;;;;5020561;28;20046;-79
2022/11/17 04:38:27;;;;;;;13.68;10.32;;;;;;;;;;4999246;28;20145;-79
2022/11/17 04:43:45;;;;;;;15.85;9.77;;;;;;;;;;5020158;28;20046;-79
2022/11/17 04:46:11;;;;;;;14.20;10.75;;;;;;;;;;5019794;28;20132;-79
2022/11/17 04:48:37;;;;;;;11.95;9.43;;;;;;;;;;5014251;28;20042;-79
2022/11/17 04:51:03;;;;;;;12.55;9.75;;;;;;;;;;5012507;28;20510;-79
2022/11/17 04:53:29;;;;;;;14.25;9.52;;;;;;;;;;5019572;28;20053;-79
2022/11/17 04:55:59;;;;;;;10.18;7.82;;;;;;;;;;5007514;28;20112;-80
2022/11/17 04:58:25;;;;;;;13.18;10.43;;;;;;;;;;5000450;28;20038;-79
2022/11/17 05:00:51;;;;;;;14.85;11.20;;;;;;;;;;4991536;28;20407;-80
2022/11/17 05:03:17;;;;;;;13.43;9.88;;;;;;;;;;4999885;28;20042;-79
2022/11/17 05:05:47;;;;;;;16.90;10.57;;;;;;;;;;5012902;28;20051;-79
2022/11/17 05:08:14;;;;;;;13.73;9.98;;;;;;;;;;5010550;28;20077;-79
2022/11/17 05:13:27;;;;;;;11.95;9.07;;;;;;;;;;4983169;28;20440;-80
2022/11/17 05:18:42;;;;;;;11.90;9.00;;;;;;;;;;5001367;28;20101;-79
2022/11/17 05:21:10;;;;;;;11.20;8.52;;;;;;;;;;5014055;28;20081;-79
2022/11/17 05:23:55;;;;;;;11.63;9.05;;;;;;;;;;5002140;28;20050;-79
2022/11/17 05:26:23;;;;;;;13.05;9.38;;;;;;;;;;4984744;28;20125;-79
2022/11/17 05:28:49;;;;;;;12.20;9.50;;;;;;;;;;5001989;28;20041;-79
2022/11/17 05:31:15;;;;;;;13.57;10.10;;;;;;;;;;5007253;28;20122;-79
2022/11/17 05:33:41;;;;;;;11.35;8.57;;;;;;;;;;5000470;28;20077;-80
2022/11/17 05:36:08;;;;;;;12.93;9.35;;;;;;;;;;4985539;28;20198;-80
2022/11/17 05:38:34;;;;;;;10.45;8.05;;;;;;;;;;5007850;28;20050;-80
2022/11/17 05:41:00;;;;;;;12.70;9.23;;;;;;;;;;4989218;28;20058;-80
2022/11/17 05:43:26;;;;;;;15.13;10.15;;;;;;;;;;4981603;28;20085;-80
2022/11/17 05:45:52;;;;;;;12.80;9.68;;;;;;;;;;4992491;28;20124;-80
2022/11/17 05:48:19;;;;;;;11.40;9.55;;;;;;;;;;4981776;28;20046;-80
2022/11/17 05:50:45;;;;;;;13.13;10.52;;;;;;;;;;4988474;28;20131;-80
2022/11/17 05:53:11;;;;;;;12.25;9.45;;;;;;;;;;4999624;28;20047;-80
2022/11/17 05:55:39;;;;;;;12.68;9.63;;;;;;;;;;5007242;28;20049;-80
2022/11/17 05:58:09;;;;;;;12.75;10.32;;;;;;;;;;5024395;28;20054;-80
2022/11/17 06:00:36;;;;;;;11.52;8.70;;;;;;;;;;5007163;28;20087;-81
2022/11/17 06:03:05;;;;;;;11.77;9.25;;;;;;;;;;4995332;28;20046;-80
2022/11/17 06:05:32;;;;;;;12.80;9.38;;;;;;;;;;5004342;28;20052;-81
2022/11/17 06:07:58;;;;;;;10.25;7.78;;;;;;;;;;5020218;28;20069;-81
2022/11/17 06:10:24;;;;;;;11.80;8.43;;;;;;;;;;5010912;28;20041;-81
2022/11/17 06:12:50;;;;;;;11.25;8.52;;;;;;;;;;5021196;28;20042;-80
2022/11/17 06:15:16;;;;;;;9.88;7.88;;;;;;;;;;5018859;28;20370;-80
2022/11/17 06:17:46;;;;;;;11.02;8.45;;;;;;;;;;4976412;28;20046;-80
2022/11/17 06:20:15;;;;;;;11.05;7.97;;;;;;;;;;5000683;28;20528;-80
2022/11/17 06:22:42;;;;;;;9.93;8.05;;;;;;;;;;4990497;28;20076;-80
2022/11/17 06:25:08;;;;;;;10.30;8.02;;;;;;;;;;4999902;28;20400;-80
2022/11/17 06:27:35;;;;;;;10.60;8.73;;;;;;;;;;4983780;28;20046;-81
2022/11/17 06:30:02;;;;;;;11.80;7.88;;;;;;;;;;5003773;28;20050;-80
2022/11/17 06:32:28;;;;;;;8.88;7.40;;;;;;;;;;5010066;28;20096;-80
2022/11/17 06:34:54;;;;;;;10.73;9.00;;;;;;;;;;5005647;28;20141;-80
2022/11/17 06:37:20;;;;;;;10.38;7.72;;;;;;;;;;5022089;28;20042;-80
2022/11/17 06:39:46;;;;;;;10.57;8.95;;;;;;;;;;5014236;28;20049;-80
2022/11/17 06:42:13;;;;;;;9.85;8.73;;;;;;;;;;5003192;28;20050;-80
2022/11/17 06:44:39;;;;;;;12.02;8.95;;;;;;;;;;4994651;28;20080;-81
2022/11/17 06:47:05;;;;;;;10.48;7.88;;;;;;;;;;4995376;28;20050;-80
2022/11/17 06:49:31;;;;;;;10.18;7.90;;;;;;;;;;5024279;28;20041;-80
2022/11/17 06:51:57;;;;;;;9.00;7.32;;;;;;;;;;5023007;28;20038;-80
2022/11/17 06:54:23;;;;;;;10.00;8.38;;;;;;;;;;4986785;28;20046;-80
2022/11/17 06:56:50;;;;;;;9.82;7.72;;;;;;;;;;5001928;28;20543;-80
2022/11/17 06:59:16;;;;;;;10.68;8.13;;;;;;;;;;5022687;28;20099;-80
2022/11/17 07:01:42;;;;;;;11.07;7.93;;;;;;;;;;5012176;28;20073;-80
2022/11/17 07:04:09;;;;;;;8.35;7.30;;;;;;;;;;5004267;28;20060;-80
2022/11/17 07:06:38;;;;;;;8.73;6.78;;;;;;;;;;5007598;28;20065;-80
2022/11/17 07:09:04;;;;;;;9.45;7.30;;;;;;;;;;5024361;28;20096;-80
2022/11/17 07:11:37;;;;;;;7.72;6.15;;;;;;;;;;5009180;28;20113;-82
2022/11/17 07:14:03;;;;;;;9.05;7.55;;;;;;;;;;5019672;28;20045;-81
2022/11/17 07:16:31;;;;;;;8.40;6.32;;;;;;;;;;5001198;28;20049;-80
2022/11/17 07:18:58;;;;;;;9.65;6.63;;;;;;;;;;5022950;28;20053;-81
2022/11/17 07:21:24;;;;;;;8.52;6.60;;;;;;;;;;5023107;28;20061;-80
2022/11/17 07:23:50;;;;;;;7.97;6.30;;;;;;;;;;5022614;28;20068;-81
2022/11/17 07:26:16;;;;;;;8.05;6.53;;;;;;;;;;5004584;28;20054;-80
2022/11/17 07:28:42;;;;;;;7.72;6.47;;;;;;;;;;5006853;28;20054;-81
2022/11/17 07:31:08;;;;;;;9.18;6.57;;;;;;;;;;4987393;28;20051;-80
2022/11/17 07:33:35;;;;;;;8.90;6.38;;;;;;;;;;5021902;28;20042;-80
2022/11/17 07:36:05;;;;;;;8.43;6.18;;;;;;;;;;5018985;28;20045;-80
2022/11/17 07:38:33;;;;;;;8.02;6.63;;;;;;;;;;5004254;28;20137;-81
2022/11/17 07:40:59;;;;;;;7.43;6.05;;;;;;;;;;5006789;28;20048;-81
2022/11/17 07:43:26;;;;;;;8.77;6.72;;;;;;;;;;5021163;28;20049;-80
2022/11/17 07:45:52;;;;;;;7.20;5.75;;;;;;;;;;5018326;28;20053;-80
2022/11/17 07:48:18;;;;;;;7.57;5.55;;;;;;;;;;5001461;28;20125;-80
2022/11/17 07:50:44;;;;;;;8.73;6.35;;;;;;;;;;5001155;28;20057;-80
2022/11/17 07:53:10;;;;;;;7.95;6.15;;;;;;;;;;5001445;28;20130;-80
2022/11/17 07:55:36;;;;;;;7.90;5.97;;;;;;;;;;5002009;28;20069;-80
2022/11/17 07:58:02;;;;;;;8.50;5.38;;;;;;;;;;5011024;28;20038;-80
2022/11/17 08:00:29;;;;;;;8.90;7.13;;;;;;;;;;5009379;28;20070;-79
2022/11/17 08:02:55;;;;;;;9.25;7.00;;;;;;;;;;5001764;28;20050;-80
2022/11/17 08:05:21;;;;;;;8.27;6.13;;;;;;;;;;4987202;28;20073;-80
2022/11/17 08:07:55;;;;;;;8.52;6.57;;;;;;;;;;4995165;28;20054;-80
2022/11/17 08:10:21;;;;;;;8.38;6.70;;;;;;;;;;4983591;28;20494;-80
2022/11/17 08:12:50;;;;;;;7.93;5.38;;;;;;;;;;5017710;28;20038;-80
2022/11/17 08:15:16;;;;;;;7.88;6.05;;;;;;;;;;4986099;28;20385;-80
2022/11/17 08:17:42;;;;;;;8.20;6.05;;;;;;;;;;5001701;28;20056;-80
2022/11/17 08:20:08;;;;;;;9.00;6.68;;;;;;;;;;4997328;28;20050;-80
2022/11/17 08:22:34;;;;;;;7.15;5.82;;;;;;;;;;5012622;28;20050;-80
2022/11/17 08:25:00;;;;;;;7.47;5.65;;;;;;;;;;4999544;28;20058;-79
2022/11/17 08:27:26;;;;;;;6.65;5.40;;;;;;;;;;5001138;28;20509;-80
2022/11/17 08:29:52;;;;;;;6.95;5.22;;;;;;;;;;5000381;28;20053;-79
2022/11/17 08:32:18;;;;;;;8.30;6.07;;;;;;;;;;5010030;28;20049;-79
2022/11/17 08:34:44;;;;;;;7.40;5.10;;;;;;;;;;4999690;28;20514;-79
2022/11/17 08:37:10;;;;;;;6.18;4.72;;;;;;;;;;5001427;28;20042;-78
2022/11/17 08:39:36;;;;;;;6.28;5.18;;;;;;;;;;4996346;28;20043;-78
2022/11/17 08:42:02;;;;;;;6.80;5.60;;;;;;;;;;5005475;28;20125;-78
2022/11/17 08:44:30;;;;;;;6.30;4.82;;;;;;;;;;5016543;28;20050;-79
2022/11/17 08:46:56;;;;;;;6.82;5.53;;;;;;;;;;5016082;28;20049;-78
2022/11/17 08:49:22;;;;;;;5.97;4.72;;;;;;;;;;5001266;28;20053;-79
2022/11/17 08:51:48;;;;;;;7.75;5.80;;;;;;;;;;5003857;28;20069;-80
2022/11/17 08:54:14;;;;;;;9.60;6.07;;;;;;;;;;4981458;28;20170;-79
2022/11/17 08:56:40;;;;;;;7.25;5.28;;;;;;;;;;5012162;28;20042;-79
2022/11/17 08:59:08;;;;;;;7.15;5.85;;;;;;;;;;5014072;28;20504;-79
2022/11/17 09:01:34;;;;;;;5.72;4.68;;;;;;;;;;5016005;28;20092;-79
2022/11/17 09:04:00;;;;;;;7.38;5.47;;;;;;;;;;5013981;28;20050;-79
2022/11/17 09:06:26;;;;;;;8.52;5.22;;;;;;;;;;5017841;28;20053;-79
2022/11/17 09:08:53;;;;;;;7.65;5.38;;;;;;;;;;5001799;28;20065;-80
2022/11/17 09:11:19;;;;;;;7.30;5.70;;;;;;;;;;5013372;28;20076;-79
2022/11/17 09:13:53;;;;;;;8.25;6.35;;;;;;;;;;5146452;27;20603;-79
2022/11/17 09:16:19;;;;;;;7.43;5.95;;;;;;;;;;5129468;27;20051;-79
2022/11/17 09:18:45;;;;;;;7.53;5.53;;;;;;;;;;5142622;28;20051;-79
2022/11/17 09:21:14;;;;;;;7.90;5.40;;;;;;;;;;5142922;28;20050;-79
2022/11/17 09:23:40;;;;;;;7.32;4.85;;;;;;;;;;5144014;27;20124;-79
2022/11/17 09:26:08;;;;;;;8.23;5.82;;;;;;;;;;5121058;28;20044;-79
2022/11/17 09:28:34;;;;;;;8.43;6.25;;;;;;;;;;5123490;28;20120;-79
2022/11/17 09:31:05;;;;;;;10.32;6.68;;;;;;;;;;5137265;27;20043;-79
2022/11/17 09:33:30;;;;;;;8.02;5.97;;;;;;;;;;5137239;27;20039;-79
2022/11/17 09:35:57;;;;;;;7.82;6.47;;;;;;;;;;5133353;28;20040;-78
2022/11/17 09:38:23;;;;;;;7.78;5.85;;;;;;;;;;5135385;28;20138;-79
2022/11/17 09:40:49;;;;;;;8.73;7.10;;;;;;;;;;5137351;28;20043;-78
2022/11/17 09:43:19;;;;;;;9.82;6.45;;;;;;;;;;5133564;28;20489;-78
2022/11/17 09:45:46;;;;;;;8.15;5.75;;;;;;;;;;5133800;28;20039;-79
2022/11/17 09:48:21;;;;;;;8.68;6.35;;;;;;;;;;5139313;27;20043;-79
2022/11/17 09:50:48;;;;;;;8.77;6.47;;;;;;;;;;5129134;28;20039;-79
2022/11/17 09:53:20;;;;;;;11.43;6.53;;;;;;;;;;5128829;27;20329;-79
2022/11/17 09:55:49;;;;;;;7.20;5.72;;;;;;;;;;5134915;28;20063;-79
2022/11/17 09:58:18;;;;;;;8.05;6.70;;;;;;;;;;5136894;28;20039;-79
2022/11/17 10:00:47;;;;;;;7.38;5.88;;;;;;;;;;5137740;28;20094;-79
2022/11/17 10:03:25;;;;;;;6.43;5.07;;;;;;;;;;5139795;27;20048;-80
2022/11/17 10:05:52;;;;;;;8.05;5.90;;;;;;;;;;5150533;27;20047;-79
2022/11/17 10:08:19;;;;;;;8.38;6.45;;;;;;;;;;5132831;28;20039;-79
2022/11/17 10:10:47;;;;;;;6.68;5.30;;;;;;;;;;5132298;28;20496;-79
2022/11/17 10:13:33;;;;;;;7.13;6.10;;;;;;;;;;5134309;28;20218;-79
2022/11/17 10:16:03;;;;;;;8.60;6.20;;;;;;;;;;5133613;28;20058;-79
2022/11/17 10:18:37;;;;;;;8.32;6.50;;;;;;;;;;5137676;27;20046;-79
2022/11/17 10:21:05;;;;;;;6.82;5.50;;;;;;;;;;5124110;28;20043;-78
2022/11/17 10:23:38;;;;;;;8.40;6.55;;;;;;;;;;5127758;28;20044;-78
2022/11/17 10:26:09;;;;;;;7.63;6.10;;;;;;;;;;5118761;28;20560;-78
2022/11/17 10:28:35;;;;;;;7.28;5.90;;;;;;;;;;5108711;28;20102;-78
2022/11/17 10:31:02;;;;;;;7.60;6.40;;;;;;;;;;5116052;28;20050;-78
2022/11/17 10:33:39;;;;;;;8.25;6.68;;;;;;;;;;5118715;28;20073;-78
2022/11/17 10:36:14;;;;;;;9.45;6.47;;;;;;;;;;5099726;28;20493;-78
2022/11/17 10:38:48;;;;;;;7.53;5.43;;;;;;;;;;5116649;28;20040;-78
2022/11/17 10:41:16;;;;;;;8.55;6.55;;;;;;;;;;5118521;28;20040;-80
2022/11/17 10:43:45;;;;;;;7.35;6.05;;;;;;;;;;5118459;28;20053;-78
2022/11/17 10:46:15;;;;;;;7.53;6.03;;;;;;;;;;5116568;27;20040;-82
2022/11/17 10:48:54;;;;;;;8.40;6.50;;;;;;;;;;5118229;27;20043;-80
2022/11/17 10:51:20;;;;;;;7.22;5.13;;;;;;;;;;5109693;28;20127;-80
2022/11/17 10:54:00;;;;;;;8.73;7.10;;;;;;;;;;5126809;27;20035;-80
2022/11/17 10:56:27;;;;;;;7.63;6.65;;;;;;;;;;5114358;28;20028;-80
2022/11/17 10:59:04;;;;;;;8.27;6.00;;;;;;;;;;5119849;28;20087;-82
2022/11/17 11:01:35;;;;;;;6.90;6.20;;;;;;;;;;5113965;28;20055;-80
2022/11/17 11:04:02;;;;;;;7.43;5.68;;;;;;;;;;5116269;28;20044;-82
2022/11/17 11:06:29;;;;;;;8.15;6.38;;;;;;;;;;5099354;28;20039;-81
2022/11/17 11:09:30;;;;;;;8.00;6.53;;;;;;;;;;5120984;28;20043;-80
2022/11/17 11:11:58;;;;;;;8.55;6.45;;;;;;;;;;5052071;28;20062;-80
2022/11/17 11:14:34;;;;;;;8.60;6.63;;;;;;;;;;5021803;28;20049;-80
2022/11/17 11:17:00;;;;;;;6.93;5.00;;;;;;;;;;5034311;28;20431;-81
2022/11/17 11:19:26;;;;;;;7.28;5.25;;;;;;;;;;5026621;28;20057;-80
2022/11/17 11:21:58;;;;;;;7.72;6.38;;;;;;;;;;5038820;28;20056;-80
2022/11/17 11:24:41;;;;;;;8.32;6.18;;;;;;;;;;5036800;28;20056;-80
2022/11/17 11:27:22;;;;;;;6.90;5.57;;;;;;;;;;5024618;28;20053;-80
2022/11/17 11:30:10;;;;;;;7.45;6.07;;;;;;;;;;5038984;28;20096;-80
2022/11/17 11:32:55;;;;;;;6.93;5.50;;;;;;;;;;5035474;28;20136;-80
2022/11/17 11:35:41;;;;;;;6.80;5.70;;;;;;;;;;5028920;28;20057;-82
2022/11/17 11:38:07;;;;;;;6.28;5.07;;;;;;;;;;5036442;28;20049;-80
2022/11/17 11:40:37;;;;;;;6.50;5.28;;;;;;;;;;5039355;28;20073;-81
2022/11/17 11:43:33;;;;;;;6.22;4.65;;;;;;;;;;5054162;28;20135;-80
2022/11/17 11:46:15;;;;;;;6.40;5.50;;;;;;;;;;5079301;28;20075;-80
2022/11/17 11:48:41;;;;;;;6.35;4.80;;;;;;;;;;5112885;28;20039;-80
2022/11/17 11:51:14;;;;;;;6.63;5.30;;;;;;;;;;5122076;28;20039;-80
2022/11/17 11:53:48;;;;;;;7.22;5.03;;;;;;;;;;5120200;28;20039;-80
2022/11/17 11:56:16;;;;;;;6.43;4.63;;;;;;;;;;5107976;28;20092;-80
2022/11/17 11:58:53;;;;;;;8.18;5.70;;;;;;;;;;5120882;28;20044;-81
2022/11/17 12:01:19;;;;;;;;;;;;;;;;;;5122366;28;20043;-80
2022/11/17 12:03:45;;;;;;;7.40;4.77;;;;;;;;;;5105701;28;19924;-80
2022/11/17 12:09:10;;;;;;;6.00;5.07;;;;;;;;;;5114974;27;20040;-80
2022/11/17 12:14:23;;;;;;;8.88;5.20;;;;;;;;;;5114615;27;20560;-80
2022/11/17 12:16:49;;;;;;;7.40;5.05;;;;;;;;;;5119847;28;20044;-80
2022/11/17 12:19:34;;;;;;;6.72;5.40;;;;;;;;;;5119939;28;20518;-80
2022/11/17 12:22:00;;;;;;;6.53;5.10;;;;;;;;;;5105588;28;20054;-80
2022/11/17 12:24:33;;;;;;;6.55;5.22;;;;;;;;;;5116501;28;20107;-80
2022/11/17 12:27:17;;;;;;;7.43;5.88;;;;;;;;;;5114062;28;20413;-80
2022/11/17 12:29:47;;;;;;;8.02;6.70;;;;;;;;;;5113108;28;20048;-80
2022/11/17 12:32:33;;;;;;;8.77;6.90;;;;;;;;;;5118651;28;20553;-80
2022/11/17 12:35:18;;;;;;;9.20;6.40;;;;;;;;;;5118428;28;20031;-80
2022/11/17 12:37:44;;;;;;;8.75;6.03;;;;;;;;;;5120477;28;20051;-81
2022/11/17 12:40:30;;;;;;;9.30;6.50;;;;;;;;;;5104944;28;20063;-81
2022/11/17 12:43:14;;;;;;;8.27;6.32;;;;;;;;;;5118060;28;20482;-81
2022/11/17 12:45:52;;;;;;;8.82;6.45;;;;;;;;;;5126084;28;20047;-82
2022/11/17 12:48:26;;;;;;;7.95;6.93;;;;;;;;;;5122865;28;20039;-79
2022/11/17 12:51:07;;;;;;;8.57;6.60;;;;;;;;;;5118024;27;20040;-79
2022/11/17 12:53:36;;;;;;;7.47;5.68;;;;;;;;;;5117429;27;20044;-79
2022/11/17 12:56:08;;;;;;;6.82;5.22;;;;;;;;;;5103799;28;20047;-79
2022/11/17 12:58:53;;;;;;;9.68;6.68;;;;;;;;;;5108978;28;20039;-80
2022/11/17 13:01:22;;;;;;;6.82;5.97;;;;;;;;;;5122343;28;20039;-79
2022/11/17 13:04:00;;;;;;;7.68;6.05;;;;;;;;;;5106357;28;20044;-79
2022/11/17 13:06:27;;;;;;;7.47;5.88;;;;;;;;;;5122560;28;20051;-79
2022/11/17 13:08:57;;;;;;;10.80;6.15;;;;;;;;;;5129325;27;20096;-79
2022/11/17 13:11:23;;;;;;;6.90;5.25;;;;;;;;;;5118672;28;20432;-79
2022/11/17 13:13:49;;;;;;;7.43;5.88;;;;;;;;;;5120884;28;20138;-79
2022/11/17 13:16:20;;;;;;;8.25;5.93;;;;;;;;;;5119649;28;20107;-79
2022/11/17 13:18:47;;;;;;;7.68;5.82;;;;;;;;;;5126490;28;20043;-79
2022/11/17 13:21:30;;;;;;;5.70;4.55;;;;;;;;;;5120256;28;20516;-79
2022/11/17 13:23:57;;;;;;;6.90;5.50;;;;;;;;;;5110098;28;20126;-81
2022/11/17 13:26:34;;;;;;;8.88;6.28;;;;;;;;;;5116407;28;20051;-79
2022/11/17 13:29:10;;;;;;;9.38;6.18;;;;;;;;;;5119743;28;20047;-80
2022/11/17 13:31:36;;;;;;;7.38;5.78;;;;;;;;;;5119269;28;20413;-80
2022/11/17 13:34:05;;;;;;;7.72;6.13;;;;;;;;;;5119905;28;20047;-81
2022/11/17 13:36:31;;;;;;;7.95;6.03;;;;;;;;;;5115219;28;20044;-81
2022/11/17 13:39:01;;;;;;;8.07;6.28;;;;;;;;;;5109806;28;20082;-82
2022/11/17 13:41:31;;;;;;;9.68;6.13;;;;;;;;;;5117947;28;20069;-81
2022/11/17 13:43:57;;;;;;;8.68;6.30;;;;;;;;;;5114624;28;20085;-79
2022/11/17 13:46:23;;;;;;;11.15;6.50;;;;;;;;;;5119223;28;20055;-80
2022/11/17 13:48:50;;;;;;;8.45;6.85;;;;;;;;;;5118314;28;20100;-79
2022/11/17 13:51:20;;;;;;;9.75;7.00;;;;;;;;;;5120058;28;20048;-78
2022/11/17 13:53:47;;;;;;;8.52;6.55;;;;;;;;;;5119517;28;20053;-78
2022/11/17 13:56:21;;;;;;;8.95;6.43;;;;;;;;;;5117447;28;20103;-79
2022/11/17 13:58:51;;;;;;;8.57;6.22;;;;;;;;;;5120050;28;20447;-78
2022/11/17 14:01:24;;;;;;;7.85;6.20;;;;;;;;;;5123855;28;20094;-78
2022/11/17 14:03:50;;;;;;;7.43;5.40;;;;;;;;;;5117818;28;20523;-80
2022/11/17 14:06:16;;;;;;;8.85;6.15;;;;;;;;;;5123112;28;20039;-79
2022/11/17 14:09:00;;;;;;;7.93;5.75;;;;;;;;;;5123556;28;20069;-79
2022/11/17 14:11:27;;;;;;;8.75;6.30;;;;;;;;;;5123331;28;20088;-79
2022/11/17 14:13:57;;;;;;;9.82;6.78;;;;;;;;;;5123333;28;20483;-79
2022/11/17 14:16:37;;;;;;;7.40;5.80;;;;;;;;;;5122675;28;20093;-79
2022/11/17 14:19:05;;;;;;;7.50;5.68;;;;;;;;;;5121039;28;20044;-79
2022/11/17 14:21:32;;;;;;;8.10;6.05;;;;;;;;;;5101659;28;20062;-79
2022/11/17 14:24:02;;;;;;;7.10;5.75;;;;;;;;;;5118507;28;20047;-79
2022/11/17 14:26:29;;;;;;;8.48;6.80;;;;;;;;;;5119504;27;20043;-81
2022/11/17 14:29:00;;;;;;;6.70;5.53;;;;;;;;;;5125719;27;20055;-80
2022/11/17 14:31:27;;;;;;;9.00;6.68;;;;;;;;;;5116792;27;20040;-80
2022/11/17 14:33:53;;;;;;;6.60;5.68;;;;;;;;;;5120478;28;20107;-80
2022/11/17 14:36:19;;;;;;;8.80;6.57;;;;;;;;;;5121863;28;20040;-80
2022/11/17 14:38:46;;;;;;;8.05;6.15;;;;;;;;;;5121836;28;20436;-80
2022/11/17 14:41:13;;;;;;;8.32;6.85;;;;;;;;;;5121707;28;20039;-81
2022/11/17 14:43:39;;;;;;;7.55;6.10;;;;;;;;;;5101905;28;20047;-80
2022/11/17 14:46:06;;;;;;;6.00;5.05;;;;;;;;;;5109612;28;20051;-80
2022/11/17 14:48:32;;;;;;;8.40;6.32;;;;;;;;;;5121862;28;20166;-80
2022/11/17 14:50:58;;;;;;;10.95;6.70;;;;;;;;;;5122021;28;20067;-80
2022/11/17 14:53:25;;;;;;;7.40;6.07;;;;;;;;;;5121954;28;20036;-80
2022/11/17 14:55:51;;;;;;;7.43;5.28;;;;;;;;;;5122006;28;20075;-80
2022/11/17 14:58:17;;;;;;;8.88;6.40;;;;;;;;;;5121619;28;20119;-80
2022/11/17 15:00:43;;;;;;;9.13;7.20;;;;;;;;;;5102595;28;20512;-81
2022/11/17 15:03:09;;;;;;;9.35;7.43;;;;;;;;;;5121345;28;20071;-80
2022/11/17 15:05:35;;;;;;;12.02;7.90;;;;;;;;;;5120764;28;20071;-81
2022/11/17 15:08:02;;;;;;;11.30;7.68;;;;;;;;;;5127444;27;20100;-80
2022/11/17 15:10:28;;;;;;;9.75;7.15;;;;;;;;;;5121488;28;20048;-80
2022/11/17 15:12:54;;;;;;;9.10;6.80;;;;;;;;;;5117973;28;20347;-80
2022/11/17 15:15:20;;;;;;;8.98;6.75;;;;;;;;;;5100684;28;20071;-81